sensor_id;sensor_type;location;lat;lon;timestamp;P1;durP1;ratioP1;P2;durP2;ratioP2
23506;SDS011;11930;53.076;18.250;2023-03-16T07:33:53;16.40;;;5.57;;
23506;SDS011;11930;53.076;18.250;2023-03-16T07:36:33;12.27;;;4.73;;
23506;SDS011;11930;53.076;18.250;2023-03-16T07:39:01;13.23;;;4.43;;
23506;SDS011;11930;53.076;18.250;2023-03-16T07:41:36;8.67;;;3.17;;
23506;SDS011;11930;53.076;18.250;2023-03-16T07:44:28;17.57;;;5.67;;
23506;SDS011;11930;53.076;18.250;2023-03-16T07:46:58;16.37;;;5.97;;
23506;SDS011;11930;53.076;18.250;2023-03-16T07:52:21;14.80;;;7.23;;
23506;SDS011;11930;53.076;18.250;2023-03-16T07:54:48;19.93;;;8.23;;
23506;SDS011;11930;53.076;18.250;2023-03-16T07:57:15;25.53;;;8.27;;
23506;SDS011;11930;53.076;18.250;2023-03-16T07:59:53;18.97;;;6.43;;
23506;SDS011;11930;53.076;18.250;2023-03-16T08:03:04;17.10;;;5.73;;
23506;SDS011;11930;53.076;18.250;2023-03-16T08:05:32;12.97;;;4.13;;
23506;SDS011;11930;53.076;18.250;2023-03-16T08:08:00;7.80;;;3.20;;
23506;SDS011;11930;53.076;18.250;2023-03-16T08:10:29;7.90;;;3.40;;
23506;SDS011;11930;53.076;18.250;2023-03-16T08:13:11;37.60;;;9.83;;
23506;SDS011;11930;53.076;18.250;2023-03-16T08:15:44;9.57;;;3.90;;
23506;SDS011;11930;53.076;18.250;2023-03-16T08:18:25;16.47;;;5.20;;
23506;SDS011;11930;53.076;18.250;2023-03-16T08:20:55;11.20;;;4.43;;
23506;SDS011;11930;53.076;18.250;2023-03-16T08:23:23;11.47;;;3.93;;
23506;SDS011;11930;53.076;18.250;2023-03-16T08:25:51;11.07;;;3.87;;
23506;SDS011;11930;53.076;18.250;2023-03-16T08:28:24;25.30;;;8.10;;
23506;SDS011;11930;53.076;18.250;2023-03-16T09:01:09;15.20;;;5.27;;
23506;SDS011;11930;53.076;18.250;2023-03-16T09:03:37;16.70;;;6.07;;
23506;SDS011;11930;53.076;18.250;2023-03-16T09:06:06;12.07;;;4.13;;
23506;SDS011;11930;53.076;18.250;2023-03-16T09:08:36;12.83;;;4.27;;
23506;SDS011;11930;53.076;18.250;2023-03-16T09:11:07;9.17;;;4.17;;
23506;SDS011;11930;53.076;18.250;2023-03-16T09:13:38;20.53;;;5.90;;
23506;SDS011;11930;53.076;18.250;2023-03-16T09:16:06;18.03;;;5.77;;
23506;SDS011;11930;53.076;18.250;2023-03-16T09:18:36;16.90;;;5.93;;
23506;SDS011;11930;53.076;18.250;2023-03-16T09:21:07;17.87;;;5.13;;
23506;SDS011;11930;53.076;18.250;2023-03-16T09:23:35;9.10;;;3.20;;
23506;SDS011;11930;53.076;18.250;2023-03-16T09:26:04;7.83;;;3.23;;
23506;SDS011;11930;53.076;18.250;2023-03-16T09:28:35;15.03;;;4.40;;
23506;SDS011;11930;53.076;18.250;2023-03-16T09:31:04;23.40;;;7.60;;
23506;SDS011;11930;53.076;18.250;2023-03-16T09:33:32;19.80;;;6.37;;
23506;SDS011;11930;53.076;18.250;2023-03-16T09:36:01;13.93;;;4.73;;
23506;SDS011;11930;53.076;18.250;2023-03-16T09:39:07;20.27;;;5.83;;
23506;SDS011;11930;53.076;18.250;2023-03-16T09:53:49;7.37;;;2.20;;
23506;SDS011;11930;53.076;18.250;2023-03-16T09:56:41;8.63;;;2.47;;
23506;SDS011;11930;53.076;18.250;2023-03-16T09:59:10;6.07;;;1.90;;
23506;SDS011;11930;53.076;18.250;2023-03-16T10:04:46;4.20;;;1.80;;
23506;SDS011;11930;53.076;18.250;2023-03-16T10:12:58;20.20;;;6.53;;
23506;SDS011;11930;53.076;18.250;2023-03-16T10:15:29;17.20;;;5.67;;
23506;SDS011;11930;53.076;18.250;2023-03-16T10:20:59;5.93;;;2.17;;
23506;SDS011;11930;53.076;18.250;2023-03-16T10:23:30;5.53;;;2.30;;
23506;SDS011;11930;53.076;18.250;2023-03-16T10:26:00;5.40;;;2.17;;
23506;SDS011;11930;53.076;18.250;2023-03-16T10:28:30;5.83;;;2.23;;
23506;SDS011;11930;53.076;18.250;2023-03-16T10:30:57;5.30;;;2.97;;
23506;SDS011;11930;53.076;18.250;2023-03-16T10:33:26;6.20;;;2.30;;
23506;SDS011;11930;53.076;18.250;2023-03-16T10:36:15;5.80;;;2.20;;
23506;SDS011;11930;53.076;18.250;2023-03-16T10:39:06;6.10;;;2.43;;
23506;SDS011;11930;53.076;18.250;2023-03-16T10:41:38;15.97;;;4.57;;
23506;SDS011;11930;53.076;18.250;2023-03-16T10:47:01;7.00;;;3.17;;
23506;SDS011;11930;53.076;18.250;2023-03-16T10:52:57;5.50;;;2.57;;
23506;SDS011;11930;53.076;18.250;2023-03-16T11:44:27;4.20;;;2.43;;
23506;SDS011;11930;53.076;18.250;2023-03-16T11:47:02;5.00;;;1.70;;
23506;SDS011;11930;53.076;18.250;2023-03-16T11:55:48;5.73;;;1.90;;
23506;SDS011;11930;53.076;18.250;2023-03-16T11:58:39;4.67;;;1.70;;
23506;SDS011;11930;53.076;18.250;2023-03-16T12:10:28;3.07;;;1.43;;
23506;SDS011;11930;53.076;18.250;2023-03-16T12:15:49;4.50;;;1.60;;
23506;SDS011;11930;53.076;18.250;2023-03-16T12:18:21;3.10;;;1.40;;
23506;SDS011;11930;53.076;18.250;2023-03-16T12:20:59;4.10;;;1.80;;
23506;SDS011;11930;53.076;18.250;2023-03-16T12:26:01;5.20;;;2.60;;
23506;SDS011;11930;53.076;18.250;2023-03-16T12:28:28;4.47;;;2.10;;
23506;SDS011;11930;53.076;18.250;2023-03-16T12:31:01;3.27;;;1.90;;
23506;SDS011;11930;53.076;18.250;2023-03-16T12:39:41;3.63;;;1.90;;
23506;SDS011;11930;53.076;18.250;2023-03-16T12:44:54;5.47;;;2.77;;
23506;SDS011;11930;53.076;18.250;2023-03-16T12:50:53;4.90;;;2.20;;
23506;SDS011;11930;53.076;18.250;2023-03-16T12:56:35;3.30;;;1.40;;
23506;SDS011;11930;53.076;18.250;2023-03-16T12:59:15;3.80;;;1.90;;
23506;SDS011;11930;53.076;18.250;2023-03-16T13:01:58;3.67;;;1.70;;
23506;SDS011;11930;53.076;18.250;2023-03-16T13:04:33;4.53;;;1.97;;
23506;SDS011;11930;53.076;18.250;2023-03-16T13:07:21;3.13;;;1.67;;
23506;SDS011;11930;53.076;18.250;2023-03-16T13:10:09;4.50;;;2.17;;
23506;SDS011;11930;53.076;18.250;2023-03-16T13:12:52;4.53;;;2.30;;
23506;SDS011;11930;53.076;18.250;2023-03-16T13:15:27;5.00;;;2.00;;
23506;SDS011;11930;53.076;18.250;2023-03-16T13:28:30;5.03;;;1.90;;
23506;SDS011;11930;53.076;18.250;2023-03-16T13:31:19;4.77;;;1.63;;
23506;SDS011;11930;53.076;18.250;2023-03-16T13:37:54;6.87;;;3.17;;
23506;SDS011;11930;53.076;18.250;2023-03-16T13:40:49;3.87;;;1.90;;
23506;SDS011;11930;53.076;18.250;2023-03-16T13:43:43;6.50;;;2.83;;
23506;SDS011;11930;53.076;18.250;2023-03-16T13:46:21;3.77;;;1.83;;
23506;SDS011;11930;53.076;18.250;2023-03-16T13:49:01;3.77;;;1.53;;
23506;SDS011;11930;53.076;18.250;2023-03-16T13:51:48;5.73;;;2.10;;
23506;SDS011;11930;53.076;18.250;2023-03-16T13:57:49;4.80;;;1.87;;
23506;SDS011;11930;53.076;18.250;2023-03-16T14:00:42;3.70;;;1.70;;
23506;SDS011;11930;53.076;18.250;2023-03-16T14:06:36;5.73;;;2.40;;
23506;SDS011;11930;53.076;18.250;2023-03-16T14:09:14;7.90;;;3.10;;
23506;SDS011;11930;53.076;18.250;2023-03-16T14:11:48;5.97;;;2.57;;
23506;SDS011;11930;53.076;18.250;2023-03-16T14:17:11;6.10;;;2.90;;
23506;SDS011;11930;53.076;18.250;2023-03-16T14:19:41;7.60;;;3.20;;
23506;SDS011;11930;53.076;18.250;2023-03-16T14:26:43;5.40;;;2.67;;
23506;SDS011;11930;53.076;18.250;2023-03-16T14:31:58;3.37;;;1.47;;
23506;SDS011;11930;53.076;18.250;2023-03-16T14:34:28;4.00;;;1.60;;
23506;SDS011;11930;53.076;18.250;2023-03-16T14:37:09;2.47;;;1.30;;
23506;SDS011;11930;53.076;18.250;2023-03-16T14:39:40;4.17;;;2.30;;
23506;SDS011;11930;53.076;18.250;2023-03-16T14:42:40;4.27;;;2.17;;
23506;SDS011;11930;53.076;18.250;2023-03-16T14:45:11;4.40;;;1.40;;
23506;SDS011;11930;53.076;18.250;2023-03-16T14:47:42;5.33;;;2.20;;
23506;SDS011;11930;53.076;18.250;2023-03-16T14:50:23;5.23;;;1.83;;
23506;SDS011;11930;53.076;18.250;2023-03-16T14:53:19;5.40;;;2.60;;
23506;SDS011;11930;53.076;18.250;2023-03-16T14:55:46;11.00;;;6.30;;
23506;SDS011;11930;53.076;18.250;2023-03-16T14:58:15;2.80;;;1.40;;
